Time;durP1;ratioP1;P1;durP2;ratioP2;P2;SDS_P1;SDS_P2;PMS_P1;PMS_P2;Temp;Humidity;BMP_temperature;BMP_pressure;BME280_temperature;BME280_humidity;BME280_pressure;Samples;Min_cycle;Max_cycle;Signal;HPM_P1;HPM_P2
2022/06/06 00:00:08;;;;;;;13.43;9.23;;;;;;;;;;5026754;28;20030;-69
2022/06/06 00:02:34;;;;;;;8.35;5.68;;;;;;;;;;5025948;28;20021;-69
2022/06/06 00:04:59;;;;;;;6.28;4.47;;;;;;;;;;5022672;28;20090;-69
2022/06/06 00:07:25;;;;;;;5.03;3.10;;;;;;;;;;5032486;28;20115;-69
2022/06/06 00:09:50;;;;;;;4.38;3.05;;;;;;;;;;5024628;28;20037;-69
2022/06/06 00:12:16;;;;;;;4.72;2.70;;;;;;;;;;5024712;28;20485;-69
2022/06/06 00:14:42;;;;;;;3.42;2.10;;;;;;;;;;5016904;28;20018;-69
2022/06/06 00:17:07;;;;;;;4.70;2.10;;;;;;;;;;5022481;28;20021;-69
2022/06/06 00:19:32;;;;;;;3.92;2.40;;;;;;;;;;5021218;28;20030;-69
2022/06/06 00:21:58;;;;;;;4.72;2.13;;;;;;;;;;5014860;28;20049;-69
2022/06/06 00:24:23;;;;;;;4.85;2.40;;;;;;;;;;5025208;28;20712;-69
2022/06/06 00:26:48;;;;;;;4.63;2.60;;;;;;;;;;5031026;28;20397;-69
2022/06/06 00:29:14;;;;;;;4.97;3.38;;;;;;;;;;5026199;28;20087;-69
2022/06/06 00:37:08;;;;;;;7.28;4.72;;;;;;;;;;5032951;28;20032;-69
2022/06/06 00:39:34;;;;;;;9.85;6.57;;;;;;;;;;5028066;28;20014;-69
2022/06/06 00:41:59;;;;;;;9.13;6.22;;;;;;;;;;5015222;28;20116;-69
2022/06/06 00:44:32;;;;;;;10.05;5.72;;;;;;;;;;5019374;28;20030;-70
2022/06/06 00:47:09;;;;;;;10.95;8.65;;;;;;;;;;5014241;28;20018;-69
2022/06/06 00:49:39;;;;;;;13.05;8.73;;;;;;;;;;5025157;28;20482;-69
2022/06/06 00:52:11;;;;;;;13.40;9.63;;;;;;;;;;5028197;28;20063;-69
2022/06/06 00:54:37;;;;;;;14.07;10.82;;;;;;;;;;5029524;28;20025;-69
2022/06/06 00:57:05;;;;;;;13.93;9.77;;;;;;;;;;5021213;28;20048;-69
2022/06/06 00:59:32;;;;;;;15.80;10.90;;;;;;;;;;5031539;28;20030;-69
2022/06/06 01:01:57;;;;;;;12.25;9.38;;;;;;;;;;5030085;28;20017;-69
2022/06/06 01:04:24;;;;;;;15.63;11.15;;;;;;;;;;5013257;28;20109;-68
2022/06/06 01:06:49;;;;;;;15.40;11.20;;;;;;;;;;5030197;28;20029;-68
2022/06/06 01:09:16;;;;;;;14.55;11.30;;;;;;;;;;5030480;28;20083;-68
2022/06/06 01:11:50;;;;;;;14.65;10.18;;;;;;;;;;5025916;28;20094;-69
2022/06/06 01:14:17;;;;;;;13.38;8.38;;;;;;;;;;5024210;28;20025;-69
2022/06/06 01:16:48;;;;;;;18.05;11.73;;;;;;;;;;5026979;28;20033;-69
2022/06/06 01:19:16;;;;;;;12.88;9.10;;;;;;;;;;5018005;28;20133;-69
2022/06/06 01:22:20;;;;;;;12.77;8.93;;;;;;;;;;5022457;28;20502;-68
2022/06/06 01:24:45;;;;;;;14.02;9.52;;;;;;;;;;5010489;28;20057;-69
2022/06/06 01:27:16;;;;;;;11.40;7.43;;;;;;;;;;5020856;28;20675;-68
2022/06/06 01:29:44;;;;;;;13.13;9.50;;;;;;;;;;5020739;28;20068;-69
2022/06/06 01:32:12;;;;;;;11.23;8.15;;;;;;;;;;5031174;28;20156;-68
2022/06/06 01:34:39;;;;;;;12.70;7.90;;;;;;;;;;5026932;28;20021;-68
2022/06/06 01:37:22;;;;;;;11.98;8.25;;;;;;;;;;5015638;28;20467;-69
2022/06/06 01:39:47;;;;;;;11.05;7.50;;;;;;;;;;5013867;28;20018;-69
2022/06/06 01:42:22;;;;;;;9.98;7.20;;;;;;;;;;5028894;28;20021;-69
2022/06/06 01:44:52;;;;;;;8.77;5.75;;;;;;;;;;5021388;28;20045;-69
2022/06/06 01:47:23;;;;;;;9.60;6.38;;;;;;;;;;5023410;28;20041;-69
2022/06/06 01:49:49;;;;;;;7.38;5.30;;;;;;;;;;5012264;28;20018;-69
2022/06/06 01:52:15;;;;;;;7.07;4.70;;;;;;;;;;5023653;28;20044;-69
2022/06/06 01:54:41;;;;;;;8.55;5.68;;;;;;;;;;5022388;28;20025;-69
2022/06/06 01:57:09;;;;;;;8.43;5.78;;;;;;;;;;5025950;28;20025;-69
2022/06/06 01:59:35;;;;;;;7.28;5.18;;;;;;;;;;5022560;28;20374;-69
2022/06/06 02:02:01;;;;;;;8.07;5.80;;;;;;;;;;5030101;28;20020;-69
2022/06/06 02:04:26;;;;;;;10.23;5.72;;;;;;;;;;5030270;28;20116;-69
2022/06/06 02:06:52;;;;;;;8.82;5.68;;;;;;;;;;5029020;28;20487;-69
2022/06/06 02:09:17;;;;;;;8.00;5.22;;;;;;;;;;5029515;28;20457;-69
2022/06/06 02:11:42;;;;;;;9.70;6.55;;;;;;;;;;5030969;28;20037;-69
2022/06/06 02:14:09;;;;;;;9.23;6.25;;;;;;;;;;5018371;28;20478;-70
2022/06/06 02:16:35;;;;;;;9.48;6.35;;;;;;;;;;5026825;28;20470;-69
2022/06/06 02:19:00;;;;;;;14.93;8.25;;;;;;;;;;5020831;28;20021;-69
2022/06/06 02:21:26;;;;;;;12.70;8.45;;;;;;;;;;5012606;28;20017;-68
2022/06/06 02:23:51;;;;;;;12.13;7.35;;;;;;;;;;5017861;28;20026;-69
2022/06/06 02:26:16;;;;;;;15.80;10.45;;;;;;;;;;5031757;28;20022;-69
2022/06/06 02:28:42;;;;;;;17.10;9.35;;;;;;;;;;5021596;28;20064;-69
2022/06/06 02:31:07;;;;;;;16.73;10.05;;;;;;;;;;5024551;28;20033;-69
2022/06/06 02:33:33;;;;;;;18.58;11.00;;;;;;;;;;5028023;28;20393;-69
2022/06/06 02:36:00;;;;;;;19.98;12.55;;;;;;;;;;5028320;28;20674;-69
2022/06/06 02:38:26;;;;;;;21.80;13.68;;;;;;;;;;5025753;28;20079;-69
2022/06/06 02:40:51;;;;;;;14.82;8.63;;;;;;;;;;5029978;28;20108;-70
2022/06/06 02:43:18;;;;;;;18.35;10.90;;;;;;;;;;5020664;28;20072;-70
2022/06/06 02:45:46;;;;;;;18.73;11.45;;;;;;;;;;5027015;28;20137;-70
2022/06/06 02:48:12;;;;;;;20.02;13.10;;;;;;;;;;5029444;28;20022;-69
2022/06/06 02:50:38;;;;;;;22.85;13.30;;;;;;;;;;5031545;28;20017;-69
2022/06/06 02:53:05;;;;;;;23.88;13.90;;;;;;;;;;5023556;28;20030;-70
2022/06/06 02:55:31;;;;;;;26.02;15.57;;;;;;;;;;5016569;28;20025;-72
2022/06/06 02:57:58;;;;;;;21.58;12.90;;;;;;;;;;5028479;28;20021;-70
2022/06/06 03:00:26;;;;;;;26.23;14.45;;;;;;;;;;5030424;28;20028;-70
2022/06/06 03:02:52;;;;;;;27.55;16.25;;;;;;;;;;5029329;28;20040;-70
2022/06/06 03:05:17;;;;;;;26.35;13.77;;;;;;;;;;5016843;28;20009;-70
2022/06/06 03:08:01;;;;;;;30.30;14.88;;;;;;;;;;5022887;28;20053;-70
2022/06/06 03:10:27;;;;;;;32.70;17.35;;;;;;;;;;5034823;28;20044;-70
2022/06/06 03:12:58;;;;;;;36.78;15.82;;;;;;;;;;5033025;28;20029;-70
2022/06/06 03:15:29;;;;;;;38.47;15.50;;;;;;;;;;5034023;28;20557;-70
2022/06/06 03:20:54;;;;;;;38.40;16.85;;;;;;;;;;5015846;28;20020;-70
2022/06/06 03:23:24;;;;;;;40.78;17.80;;;;;;;;;;5031748;28;20504;-70
2022/06/06 03:25:49;;;;;;;38.65;17.98;;;;;;;;;;5025474;28;20021;-70
2022/06/06 03:28:24;;;;;;;36.70;16.60;;;;;;;;;;5031621;28;20036;-69
2022/06/06 03:31:08;;;;;;;41.70;17.98;;;;;;;;;;5034431;28;20060;-69
2022/06/06 03:33:56;;;;;;;49.35;20.15;;;;;;;;;;5018562;28;20022;-70
2022/06/06 03:36:38;;;;;;;44.75;18.85;;;;;;;;;;5024917;28;20025;-69
2022/06/06 03:39:07;;;;;;;38.47;16.98;;;;;;;;;;5020855;28;20029;-70
2022/06/06 03:41:35;;;;;;;39.63;16.83;;;;;;;;;;5031426;28;20092;-70
2022/06/06 03:44:00;;;;;;;33.13;13.98;;;;;;;;;;5025883;28;20033;-70
2022/06/06 03:46:41;;;;;;;40.30;16.73;;;;;;;;;;5021880;28;20565;-70
2022/06/06 03:49:12;;;;;;;39.88;17.42;;;;;;;;;;5028820;28;20045;-69
2022/06/06 03:51:40;;;;;;;47.65;20.63;;;;;;;;;;5031601;28;20031;-69
2022/06/06 03:54:06;;;;;;;48.75;21.42;;;;;;;;;;5034788;28;20125;-69
2022/06/06 03:56:57;;;;;;;37.42;16.73;;;;;;;;;;5032287;28;20485;-69
2022/06/06 03:59:23;;;;;;;45.38;19.30;;;;;;;;;;5022680;28;20034;-69
2022/06/06 04:01:50;;;;;;;45.65;19.83;;;;;;;;;;5026031;28;20117;-69
2022/06/06 04:04:16;;;;;;;43.70;20.55;;;;;;;;;;5024694;28;20378;-69
2022/06/06 04:06:41;;;;;;;41.90;19.58;;;;;;;;;;5018673;28;20025;-69
2022/06/06 04:09:07;;;;;;;32.60;14.43;;;;;;;;;;5032812;28;20059;-69
2022/06/06 04:11:44;;;;;;;40.00;17.77;;;;;;;;;;5031524;28;20030;-69
2022/06/06 04:14:09;;;;;;;34.65;15.95;;;;;;;;;;5023400;28;20067;-70
2022/06/06 04:16:37;;;;;;;27.67;12.15;;;;;;;;;;5034154;28;20033;-70
2022/06/06 04:19:11;;;;;;;39.30;17.63;;;;;;;;;;5022121;28;20037;-69
2022/06/06 04:21:39;;;;;;;33.63;14.93;;;;;;;;;;5017574;28;20369;-70
2022/06/06 04:24:23;;;;;;;37.78;18.50;;;;;;;;;;5033073;28;20029;-69
2022/06/06 04:26:57;;;;;;;37.13;17.60;;;;;;;;;;5022517;28;20076;-69
2022/06/06 04:29:35;;;;;;;30.63;14.38;;;;;;;;;;5023567;28;20029;-69
2022/06/06 04:32:12;;;;;;;30.05;14.23;;;;;;;;;;5024330;28;20029;-69
2022/06/06 04:34:49;;;;;;;35.30;18.20;;;;;;;;;;5029447;28;20029;-70
2022/06/06 04:37:46;;;;;;;37.95;18.77;;;;;;;;;;5032345;28;20079;-69
2022/06/06 04:40:11;;;;;;;31.35;16.50;;;;;;;;;;5014320;28;20062;-69
2022/06/06 04:42:57;;;;;;;30.67;14.93;;;;;;;;;;5023529;28;20501;-69
2022/06/06 04:45:32;;;;;;;31.00;16.80;;;;;;;;;;5022796;28;20117;-70
2022/06/06 04:47:59;;;;;;;29.38;15.65;;;;;;;;;;5028452;28;20029;-69
2022/06/06 04:50:24;;;;;;;31.05;15.63;;;;;;;;;;5025673;28;20166;-69
2022/06/06 04:52:54;;;;;;;28.35;14.95;;;;;;;;;;5028417;28;20116;-69
2022/06/06 04:55:20;;;;;;;27.15;14.38;;;;;;;;;;5028371;28;20417;-69
2022/06/06 04:57:47;;;;;;;24.40;14.02;;;;;;;;;;5026612;28;20405;-69
2022/06/06 05:00:13;;;;;;;25.35;13.20;;;;;;;;;;5016315;28;20061;-69
2022/06/06 05:02:38;;;;;;;23.15;10.98;;;;;;;;;;5022862;28;20524;-69
2022/06/06 05:05:05;;;;;;;22.33;11.18;;;;;;;;;;5033261;28;20462;-69
2022/06/06 05:07:31;;;;;;;23.63;12.48;;;;;;;;;;5023396;28;20482;-69
2022/06/06 05:10:15;;;;;;;21.15;11.13;;;;;;;;;;5031324;28;20032;-69
2022/06/06 05:12:49;;;;;;;21.10;11.50;;;;;;;;;;5025324;28;20029;-70
2022/06/06 05:15:21;;;;;;;18.45;9.60;;;;;;;;;;5030437;28;20030;-69
2022/06/06 05:17:59;;;;;;;21.48;10.50;;;;;;;;;;5032309;28;20033;-69
2022/06/06 05:20:48;;;;;;;19.95;10.73;;;;;;;;;;5021881;28;20053;-70
2022/06/06 05:23:16;;;;;;;18.50;9.38;;;;;;;;;;5019243;28;20466;-69
2022/06/06 05:25:54;;;;;;;16.88;9.70;;;;;;;;;;5018690;28;20033;-69
2022/06/06 05:28:38;;;;;;;15.27;8.65;;;;;;;;;;5017925;28;20060;-69
2022/06/06 05:31:22;;;;;;;17.65;8.98;;;;;;;;;;5032338;28;20071;-69
2022/06/06 05:33:52;;;;;;;14.30;7.50;;;;;;;;;;5031576;28;20029;-69
2022/06/06 05:36:18;;;;;;;13.02;7.65;;;;;;;;;;5030106;28;20026;-69
2022/06/06 05:38:43;;;;;;;14.27;7.07;;;;;;;;;;5022247;28;20135;-69
2022/06/06 05:41:20;;;;;;;12.23;6.90;;;;;;;;;;5027294;28;20034;-69
2022/06/06 05:43:45;;;;;;;15.15;7.35;;;;;;;;;;5032644;28;20065;-69
2022/06/06 05:46:40;;;;;;;14.38;7.40;;;;;;;;;;5028747;28;20049;-70
2022/06/06 05:49:08;;;;;;;14.48;7.55;;;;;;;;;;5031416;28;20033;-69
2022/06/06 05:51:36;;;;;;;12.68;7.03;;;;;;;;;;5023642;28;20025;-69
2022/06/06 05:54:09;;;;;;;12.48;6.47;;;;;;;;;;5025229;28;20026;-69
2022/06/06 05:56:42;;;;;;;10.60;5.85;;;;;;;;;;5021741;28;20033;-69
2022/06/06 05:59:10;;;;;;;11.45;6.75;;;;;;;;;;5023163;28;20021;-69
2022/06/06 06:01:41;;;;;;;10.20;5.72;;;;;;;;;;5018340;28;20025;-69
2022/06/06 06:04:06;;;;;;;11.75;6.93;;;;;;;;;;5028072;28;20021;-69
2022/06/06 06:06:50;;;;;;;11.27;6.47;;;;;;;;;;5031164;28;20485;-69
2022/06/06 06:09:19;;;;;;;11.45;6.57;;;;;;;;;;5019574;28;20029;-69
2022/06/06 06:11:48;;;;;;;11.13;6.82;;;;;;;;;;5018031;28;20041;-69
2022/06/06 06:14:42;;;;;;;11.82;7.40;;;;;;;;;;5015800;28;20694;-69
2022/06/06 06:17:09;;;;;;;17.90;7.93;;;;;;;;;;5031332;28;20037;-69
2022/06/06 06:19:37;;;;;;;14.18;8.38;;;;;;;;;;5018811;28;20033;-69
2022/06/06 06:22:04;;;;;;;13.90;8.07;;;;;;;;;;5025928;28;20018;-70
2022/06/06 06:24:30;;;;;;;14.00;7.70;;;;;;;;;;5025017;28;20084;-69
2022/06/06 06:26:57;;;;;;;14.57;7.88;;;;;;;;;;5023261;28;20470;-69
2022/06/06 06:29:22;;;;;;;14.88;8.60;;;;;;;;;;5021473;28;20026;-68
2022/06/06 06:31:47;;;;;;;19.30;9.10;;;;;;;;;;5026215;28;20052;-68
2022/06/06 06:34:31;;;;;;;15.10;8.05;;;;;;;;;;5012462;28;20030;-69
2022/06/06 06:37:07;;;;;;;16.90;8.93;;;;;;;;;;5024412;28;20037;-69
2022/06/06 06:39:33;;;;;;;14.95;8.50;;;;;;;;;;5028203;28;20041;-69
2022/06/06 06:42:09;;;;;;;16.10;9.15;;;;;;;;;;5020522;28;20026;-69
2022/06/06 06:44:39;;;;;;;16.55;9.27;;;;;;;;;;5022153;28;20022;-69
2022/06/06 06:47:12;;;;;;;17.67;9.57;;;;;;;;;;5021396;28;20022;-69
2022/06/06 06:49:42;;;;;;;15.52;8.88;;;;;;;;;;5030665;28;20049;-69
2022/06/06 06:52:17;;;;;;;17.30;9.27;;;;;;;;;;5022791;28;20028;-69
2022/06/06 06:54:42;;;;;;;19.20;8.80;;;;;;;;;;5023336;28;20441;-69
2022/06/06 06:57:23;;;;;;;20.17;10.05;;;;;;;;;;5012802;28;20046;-69
2022/06/06 06:59:51;;;;;;;14.90;7.45;;;;;;;;;;5014339;28;20152;-69
2022/06/06 07:08:57;;;;;;;20.48;10.65;;;;;;;;;;5022237;28;20037;-69
2022/06/06 07:11:10;;;;;;;18.60;9.68;;;;;;;;;;5027552;28;20494;-69
2022/06/06 07:13:53;;;;;;;17.05;9.40;;;;;;;;;;5018989;28;20462;-69
2022/06/06 07:16:29;;;;;;;20.33;10.65;;;;;;;;;;5018543;28;20477;-69
2022/06/06 07:19:01;;;;;;;18.75;9.40;;;;;;;;;;5008685;28;20394;-69
2022/06/06 07:21:27;;;;;;;17.75;8.60;;;;;;;;;;5024208;28;20096;-69
2022/06/06 07:23:55;;;;;;;19.45;10.25;;;;;;;;;;5016845;28;20061;-69
2022/06/06 07:26:21;;;;;;;17.50;9.15;;;;;;;;;;5021929;28;20388;-69
2022/06/06 07:28:46;;;;;;;17.52;9.68;;;;;;;;;;5017573;28;20048;-69
2022/06/06 07:31:22;;;;;;;18.95;9.50;;;;;;;;;;5018147;28;20044;-69
2022/06/06 07:33:54;;;;;;;20.10;10.32;;;;;;;;;;5016920;28;20052;-69
2022/06/06 07:36:33;;;;;;;19.83;10.60;;;;;;;;;;5024837;28;20584;-69
2022/06/06 07:39:12;;;;;;;18.42;9.73;;;;;;;;;;5017949;28;20030;-69
2022/06/06 07:41:38;;;;;;;18.65;10.30;;;;;;;;;;5019541;28;20438;-68
2022/06/06 07:44:21;;;;;;;20.60;10.35;;;;;;;;;;5019005;28;20105;-69
2022/06/06 07:46:59;;;;;;;19.65;10.20;;;;;;;;;;5021605;28;20167;-69
2022/06/06 07:49:32;;;;;;;19.33;10.48;;;;;;;;;;5012984;28;20482;-69
2022/06/06 07:52:08;;;;;;;19.20;10.07;;;;;;;;;;5026080;28;20026;-69
2022/06/06 07:54:44;;;;;;;21.52;9.90;;;;;;;;;;5024816;28;20529;-69
2022/06/06 07:57:10;;;;;;;17.38;8.93;;;;;;;;;;5020513;28;20022;-69
2022/06/06 07:59:53;;;;;;;18.85;9.55;;;;;;;;;;5023861;28;20115;-69
2022/06/06 08:02:35;;;;;;;16.77;8.95;;;;;;;;;;5027778;28;20076;-69
2022/06/06 08:05:03;;;;;;;15.10;7.72;;;;;;;;;;5025669;28;20582;-69
2022/06/06 08:07:40;;;;;;;15.40;8.95;;;;;;;;;;5028866;28;20060;-68
2022/06/06 08:10:17;;;;;;;15.35;8.82;;;;;;;;;;5023010;28;20143;-69
2022/06/06 08:12:42;;;;;;;15.00;8.82;;;;;;;;;;5027763;28;20057;-69
2022/06/06 08:15:16;;;;;;;13.25;7.45;;;;;;;;;;5021458;28;20057;-69
2022/06/06 08:17:41;;;;;;;15.73;8.80;;;;;;;;;;5028070;28;20405;-69
2022/06/06 08:20:07;;;;;;;13.45;8.18;;;;;;;;;;5020916;28;20478;-69
2022/06/06 08:22:34;;;;;;;14.85;8.77;;;;;;;;;;5025266;28;20022;-69
2022/06/06 08:25:02;;;;;;;13.52;8.57;;;;;;;;;;5016231;28;20090;-69
2022/06/06 08:27:28;;;;;;;15.95;9.48;;;;;;;;;;5021385;28;20111;-69
2022/06/06 08:29:54;;;;;;;15.27;8.45;;;;;;;;;;5027727;28;20033;-69
2022/06/06 08:32:19;;;;;;;20.27;10.57;;;;;;;;;;5021063;28;20029;-69
2022/06/06 08:34:44;;;;;;;17.67;10.90;;;;;;;;;;5029500;28;20021;-69
2022/06/06 08:37:10;;;;;;;19.10;11.30;;;;;;;;;;5025909;28;20037;-69
2022/06/06 08:39:50;;;;;;;17.67;10.73;;;;;;;;;;5023498;28;20034;-69
2022/06/06 08:42:24;;;;;;;22.50;9.35;;;;;;;;;;5020730;28;20120;-69
2022/06/06 08:45:09;;;;;;;14.02;8.10;;;;;;;;;;5016821;28;20081;-69
2022/06/06 08:47:58;;;;;;;13.93;8.27;;;;;;;;;;5025066;28;20029;-69
2022/06/06 08:50:46;;;;;;;12.43;7.75;;;;;;;;;;5026235;28;20044;-69
2022/06/06 08:53:28;;;;;;;11.63;5.47;;;;;;;;;;5019959;28;20026;-69
2022/06/06 08:56:04;;;;;;;10.10;5.88;;;;;;;;;;5026023;28;20109;-69
2022/06/06 08:58:42;;;;;;;9.20;5.53;;;;;;;;;;5021376;28;20033;-69
2022/06/06 09:01:07;;;;;;;9.77;6.03;;;;;;;;;;5021447;28;20226;-69
2022/06/06 09:03:32;;;;;;;9.68;6.18;;;;;;;;;;5026241;28;20021;-68
2022/06/06 09:06:16;;;;;;;10.82;4.43;;;;;;;;;;5025540;28;20084;-69
2022/06/06 09:08:41;;;;;;;7.78;4.70;;;;;;;;;;5027510;28;20061;-69
2022/06/06 09:11:27;;;;;;;10.88;4.93;;;;;;;;;;5019622;28;20041;-69
2022/06/06 09:14:07;;;;;;;11.38;5.70;;;;;;;;;;5034952;28;20414;-68
2022/06/06 09:16:35;;;;;;;10.13;6.40;;;;;;;;;;5021135;28;20040;-68
2022/06/06 09:19:01;;;;;;;10.43;6.20;;;;;;;;;;5017944;28;20409;-69
2022/06/06 09:21:26;;;;;;;11.43;5.82;;;;;;;;;;5023774;28;20030;-69
2022/06/06 09:24:02;;;;;;;10.93;5.70;;;;;;;;;;5020347;28;20032;-68
2022/06/06 09:26:30;;;;;;;10.75;6.28;;;;;;;;;;5025927;28;20029;-68
2022/06/06 09:28:56;;;;;;;8.75;5.57;;;;;;;;;;5019046;28;20057;-68
2022/06/06 09:31:27;;;;;;;10.23;5.97;;;;;;;;;;5026996;28;20086;-69
2022/06/06 09:33:52;;;;;;;;;;;;;;;;;;5026507;28;20040;-69
2022/06/06 09:36:38;;;;;;;10.05;5.75;;;;;;;;;;5019678;28;19927;-68
2022/06/06 09:39:14;;;;;;;10.45;6.05;;;;;;;;;;5020251;28;20285;-69
2022/06/06 09:42:00;;;;;;;11.48;5.50;;;;;;;;;;5016773;28;20095;-69
2022/06/06 09:44:41;;;;;;;9.93;5.78;;;;;;;;;;5036178;28;20041;-69
2022/06/06 09:47:41;;;;;;;9.07;4.95;;;;;;;;;;5021471;28;20352;-70
2022/06/06 09:50:20;;;;;;;8.85;4.32;;;;;;;;;;5017779;28;20025;-69
2022/06/06 09:53:01;;;;;;;6.20;3.65;;;;;;;;;;5024854;28;20309;-69
2022/06/06 10:01:16;;;;;;;7.90;4.88;;;;;;;;;;5023085;28;20380;-69
2022/06/06 10:03:59;;;;;;;8.45;5.18;;;;;;;;;;5025313;28;20017;-69
2022/06/06 10:06:43;;;;;;;7.15;5.18;;;;;;;;;;5018112;28;20029;-70
2022/06/06 10:09:14;;;;;;;11.68;6.05;;;;;;;;;;5023797;28;20060;-70
2022/06/06 10:11:45;;;;;;;8.98;5.47;;;;;;;;;;5024070;28;20121;-69
2022/06/06 10:14:22;;;;;;;11.18;5.60;;;;;;;;;;5024898;28;20075;-69
2022/06/06 10:16:58;;;;;;;9.27;5.85;;;;;;;;;;5021661;28;20548;-69
2022/06/06 10:19:33;;;;;;;7.30;4.65;;;;;;;;;;5016577;28;20017;-69
2022/06/06 10:22:27;;;;;;;6.63;4.32;;;;;;;;;;5019413;28;20038;-70
2022/06/06 10:25:07;;;;;;;6.72;3.10;;;;;;;;;;5054341;28;20033;-69
2022/06/06 10:27:38;;;;;;;5.25;2.70;;;;;;;;;;5047583;28;22456;-70
2022/06/06 10:30:12;;;;;;;4.63;2.33;;;;;;;;;;5012009;28;20022;-70
2022/06/06 10:32:56;;;;;;;3.58;1.95;;;;;;;;;;5017469;28;20030;-70
2022/06/06 10:35:40;;;;;;;4.07;2.13;;;;;;;;;;5012515;28;20026;-70
2022/06/06 10:38:20;;;;;;;5.10;2.10;;;;;;;;;;5011848;28;20393;-70
2022/06/06 10:40:48;;;;;;;5.93;2.20;;;;;;;;;;5012057;28;20093;-70
2022/06/06 10:43:32;;;;;;;4.00;2.10;;;;;;;;;;5013954;28;20105;-70
2022/06/06 10:46:02;;;;;;;4.10;1.92;;;;;;;;;;5011647;28;20022;-70
2022/06/06 10:48:46;;;;;;;4.40;2.00;;;;;;;;;;5016719;28;20021;-69
2022/06/06 10:54:24;;;;;;;8.00;2.60;;;;;;;;;;5015244;28;20045;-70
2022/06/06 10:57:08;;;;;;;5.75;2.00;;;;;;;;;;5018913;28;20058;-70
2022/06/06 10:59:47;;;;;;;4.13;2.25;;;;;;;;;;5018161;28;20082;-69
2022/06/06 11:02:32;;;;;;;6.10;2.30;;;;;;;;;;5029860;28;20029;-69
2022/06/06 11:05:03;;;;;;;4.82;2.33;;;;;;;;;;5030200;28;20339;-69
2022/06/06 11:07:35;;;;;;;7.10;2.40;;;;;;;;;;5030461;28;20539;-69
2022/06/06 11:10:18;;;;;;;4.97;2.20;;;;;;;;;;5029763;28;20095;-69
2022/06/06 11:13:02;;;;;;;5.55;1.88;;;;;;;;;;5017550;28;20373;-69
2022/06/06 11:15:36;;;;;;;3.85;1.50;;;;;;;;;;5017631;28;20030;-69
2022/06/06 11:18:08;;;;;;;3.08;1.77;;;;;;;;;;5027874;28;20426;-69
2022/06/06 11:20:51;;;;;;;5.07;1.60;;;;;;;;;;5030079;28;20420;-69
2022/06/06 11:23:21;;;;;;;3.70;1.23;;;;;;;;;;5023840;28;20126;-69
2022/06/06 11:25:46;;;;;;;4.82;1.60;;;;;;;;;;5013244;28;20018;-69
2022/06/06 11:28:31;;;;;;;4.47;1.33;;;;;;;;;;5018663;28;20036;-70
2022/06/06 11:31:14;;;;;;;2.70;1.23;;;;;;;;;;5012847;28;20470;-69
2022/06/06 11:33:55;;;;;;;2.70;1.05;;;;;;;;;;5022529;28;20394;-69
2022/06/06 11:36:33;;;;;;;2.25;1.00;;;;;;;;;;5031288;28;20025;-70
2022/06/06 11:39:37;;;;;;;2.95;1.00;;;;;;;;;;5022309;28;20025;-69
2022/06/06 11:42:17;;;;;;;2.78;1.15;;;;;;;;;;5027444;28;20398;-70
2022/06/06 11:45:15;;;;;;;2.50;1.05;;;;;;;;;;5009677;28;20022;-70
2022/06/06 11:48:05;;;;;;;1.80;1.02;;;;;;;;;;4984771;28;20152;-70
2022/06/06 11:50:33;;;;;;;4.97;1.30;;;;;;;;;;5016722;28;20029;-70
2022/06/06 11:53:14;;;;;;;1.85;0.90;;;;;;;;;;5022637;28;20060;-70
2022/06/06 11:55:51;;;;;;;1.40;0.70;;;;;;;;;;5022321;28;20075;-70
2022/06/06 11:58:31;;;;;;;3.20;1.08;;;;;;;;;;5022666;28;20037;-70
2022/06/06 12:01:22;;;;;;;4.47;1.02;;;;;;;;;;5022096;28;20025;-69
2022/06/06 12:03:50;;;;;;;3.20;0.90;;;;;;;;;;5020249;28;20036;-69
2022/06/06 12:06:46;;;;;;;3.17;0.90;;;;;;;;;;5023112;28;20021;-70
2022/06/06 12:09:30;;;;;;;3.42;0.82;;;;;;;;;;5014019;28;20048;-70
2022/06/06 12:12:01;;;;;;;2.80;1.00;;;;;;;;;;5021955;28;20037;-69
2022/06/06 12:14:37;;;;;;;3.10;0.90;;;;;;;;;;5021392;28;20025;-69
2022/06/06 12:17:06;;;;;;;1.48;0.80;;;;;;;;;;5020344;28;20067;-69
2022/06/06 12:19:34;;;;;;;2.17;0.90;;;;;;;;;;5022787;28;20425;-70
2022/06/06 12:22:16;;;;;;;2.10;1.00;;;;;;;;;;5022343;28;20382;-70
2022/06/06 12:25:00;;;;;;;2.38;0.80;;;;;;;;;;5021600;28;20584;-70
2022/06/06 12:27:37;;;;;;;2.80;1.02;;;;;;;;;;5021580;28;20026;-70
2022/06/06 12:30:05;;;;;;;1.38;0.80;;;;;;;;;;5017090;28;20037;-70
2022/06/06 12:32:34;;;;;;;2.90;0.90;;;;;;;;;;5021125;28;20036;-69
2022/06/06 12:35:11;;;;;;;1.77;0.80;;;;;;;;;;5020887;28;20374;-70
2022/06/06 12:37:43;;;;;;;2.60;0.82;;;;;;;;;;5020404;28;20083;-70
2022/06/06 12:40:16;;;;;;;2.55;0.90;;;;;;;;;;5015418;28;20029;-70
2022/06/06 12:43:11;;;;;;;4.53;0.90;;;;;;;;;;5014130;28;20160;-70
2022/06/06 12:45:56;;;;;;;3.38;0.90;;;;;;;;;;5012851;28;20037;-70
2022/06/06 12:48:27;;;;;;;4.57;0.80;;;;;;;;;;5018570;28;20473;-70
2022/06/06 12:51:01;;;;;;;4.55;0.68;;;;;;;;;;5017077;28;20032;-70
2022/06/06 12:53:46;;;;;;;2.28;0.80;;;;;;;;;;5018278;28;20033;-69
2022/06/06 12:58:43;;;;;;;6.57;0.80;;;;;;;;;;5012792;28;20560;-70
2022/06/06 13:03:58;;;;;;;1.63;0.80;;;;;;;;;;5017357;28;20048;-69
2022/06/06 13:06:35;;;;;;;2.92;0.95;;;;;;;;;;5014978;28;20116;-69
2022/06/06 13:09:03;;;;;;;2.88;0.70;;;;;;;;;;5020011;28;20038;-69
2022/06/06 13:11:32;;;;;;;6.60;0.98;;;;;;;;;;5022061;28;20095;-69
2022/06/06 13:14:03;;;;;;;3.78;0.90;;;;;;;;;;5027513;28;20029;-69
2022/06/06 13:16:47;;;;;;;2.38;0.82;;;;;;;;;;5022227;28;20317;-70
2022/06/06 13:19:21;;;;;;;2.63;0.80;;;;;;;;;;5018805;28;20031;-70
2022/06/06 13:21:53;;;;;;;1.92;0.70;;;;;;;;;;5020111;28;20036;-70
2022/06/06 13:24:37;;;;;;;2.33;0.90;;;;;;;;;;5023534;28;20025;-70
2022/06/06 13:27:25;;;;;;;3.42;0.80;;;;;;;;;;5017235;28;20485;-70
2022/06/06 13:29:50;;;;;;;2.58;0.75;;;;;;;;;;5018788;28;20029;-70
2022/06/06 13:32:15;;;;;;;1.98;0.80;;;;;;;;;;5024382;28;20031;-70
2022/06/06 13:34:48;;;;;;;1.67;0.70;;;;;;;;;;5009858;28;20936;-71
2022/06/06 13:37:18;;;;;;;3.25;0.80;;;;;;;;;;5026995;28;20056;-70
2022/06/06 13:40:05;;;;;;;2.15;0.80;;;;;;;;;;5021076;28;20029;-70
2022/06/06 13:42:58;;;;;;;1.60;0.70;;;;;;;;;;5028512;28;20513;-70
2022/06/06 13:45:37;;;;;;;2.03;0.82;;;;;;;;;;5022529;28;20398;-70
2022/06/06 13:48:14;;;;;;;2.30;0.70;;;;;;;;;;5011430;28;20036;-70
2022/06/06 13:50:45;;;;;;;1.55;0.70;;;;;;;;;;5017700;28;20045;-70
2022/06/06 13:53:29;;;;;;;1.65;0.73;;;;;;;;;;5014642;28;20026;-69
2022/06/06 13:56:12;;;;;;;3.08;1.27;;;;;;;;;;5019532;28;20048;-69
2022/06/06 13:58:38;;;;;;;4.88;0.80;;;;;;;;;;5015906;28;20465;-69
2022/06/06 14:01:10;;;;;;;6.68;1.10;;;;;;;;;;5012480;28;20037;-69
2022/06/06 14:03:35;;;;;;;3.42;0.73;;;;;;;;;;5028666;28;20029;-69
2022/06/06 14:06:19;;;;;;;3.25;0.70;;;;;;;;;;5019971;28;20017;-69
2022/06/06 14:08:47;;;;;;;1.95;0.70;;;;;;;;;;5019369;28;20402;-69
2022/06/06 14:11:17;;;;;;;2.33;0.65;;;;;;;;;;5021843;28;20357;-69
2022/06/06 14:13:43;;;;;;;1.30;0.50;;;;;;;;;;5020558;28;20033;-70
2022/06/06 14:16:16;;;;;;;1.10;0.50;;;;;;;;;;5023386;28;20538;-69
2022/06/06 14:18:42;;;;;;;1.77;0.60;;;;;;;;;;5017439;28;20030;-69
2022/06/06 14:21:07;;;;;;;3.17;0.80;;;;;;;;;;5027071;28;20036;-69
2022/06/06 14:23:35;;;;;;;1.13;0.50;;;;;;;;;;5020684;28;20081;-69
2022/06/06 14:26:04;;;;;;;2.20;0.93;;;;;;;;;;5014172;28;20025;-69
2022/06/06 14:28:30;;;;;;;1.30;0.70;;;;;;;;;;5012707;28;20034;-69
2022/06/06 14:30:56;;;;;;;2.10;0.70;;;;;;;;;;5022002;28;20029;-69
2022/06/06 14:33:23;;;;;;;1.35;0.65;;;;;;;;;;5027208;28;20021;-69
2022/06/06 14:35:48;;;;;;;2.10;0.70;;;;;;;;;;5021058;28;20204;-69
2022/06/06 14:38:18;;;;;;;1.55;0.60;;;;;;;;;;5014953;28;20582;-69
2022/06/06 14:40:49;;;;;;;0.93;0.60;;;;;;;;;;5022300;28;20517;-69
2022/06/06 14:43:14;;;;;;;2.00;0.80;;;;;;;;;;5018968;28;20378;-69
2022/06/06 14:45:49;;;;;;;1.17;0.60;;;;;;;;;;5019542;28;20284;-69
2022/06/06 14:48:16;;;;;;;3.63;0.80;;;;;;;;;;5024027;28;20026;-70
2022/06/06 14:50:52;;;;;;;4.28;0.70;;;;;;;;;;5022483;28;20029;-69
2022/06/06 14:53:20;;;;;;;3.17;0.73;;;;;;;;;;5013179;28;20025;-69
2022/06/06 14:55:47;;;;;;;2.33;0.80;;;;;;;;;;5019076;28;20064;-69
2022/06/06 14:58:14;;;;;;;1.45;0.52;;;;;;;;;;5016909;28;20052;-69
2022/06/06 15:01:00;;;;;;;1.80;0.80;;;;;;;;;;5017417;28;20449;-69
2022/06/06 15:03:52;;;;;;;6.38;0.68;;;;;;;;;;5017555;28;20059;-69
2022/06/06 15:06:23;;;;;;;4.97;0.70;;;;;;;;;;5014630;28;20559;-70
2022/06/06 15:09:04;;;;;;;3.90;1.02;;;;;;;;;;5017594;28;20454;-70
2022/06/06 15:11:31;;;;;;;2.15;0.70;;;;;;;;;;5020828;28;20052;-70
2022/06/06 15:14:01;;;;;;;3.72;0.70;;;;;;;;;;5031469;28;20048;-70
2022/06/06 15:16:28;;;;;;;3.53;0.70;;;;;;;;;;5017017;28;20116;-70
2022/06/06 15:18:56;;;;;;;3.13;0.85;;;;;;;;;;5023725;28;20468;-71
2022/06/06 15:21:23;;;;;;;2.33;0.85;;;;;;;;;;5031722;28;20029;-70
2022/06/06 15:23:55;;;;;;;5.47;0.90;;;;;;;;;;5018014;28;20478;-70
2022/06/06 15:26:30;;;;;;;1.30;0.60;;;;;;;;;;5032224;28;20401;-69
2022/06/06 15:28:59;;;;;;;1.60;0.73;;;;;;;;;;5029116;28;20026;-70
2022/06/06 15:31:28;;;;;;;1.88;0.80;;;;;;;;;;5032360;28;20386;-69
2022/06/06 15:33:53;;;;;;;3.42;0.70;;;;;;;;;;5031757;28;20036;-70